sensor_id;sensor_type;location;lat;lon;timestamp;P1;durP1;ratioP1;P2;durP2;ratioP2
6850;SDS011;3464;42.728;23.296;2022-12-07T00:01:38;41.30;;;18.90;;
6850;SDS011;3464;42.728;23.296;2022-12-07T00:04:06;41.90;;;19.53;;
6850;SDS011;3464;42.728;23.296;2022-12-07T00:06:33;41.27;;;19.43;;
6850;SDS011;3464;42.728;23.296;2022-12-07T00:08:58;43.60;;;19.13;;
6850;SDS011;3464;42.728;23.296;2022-12-07T00:11:25;40.23;;;19.00;;
6850;SDS011;3464;42.728;23.296;2022-12-07T00:13:54;38.10;;;18.80;;
6850;SDS011;3464;42.728;23.296;2022-12-07T00:16:20;39.63;;;19.27;;
6850;SDS011;3464;42.728;23.296;2022-12-07T00:18:47;45.33;;;20.63;;
6850;SDS011;3464;42.728;23.296;2022-12-07T00:21:16;38.77;;;20.20;;
6850;SDS011;3464;42.728;23.296;2022-12-07T00:23:47;39.50;;;19.60;;
6850;SDS011;3464;42.728;23.296;2022-12-07T00:26:16;41.07;;;19.80;;
6850;SDS011;3464;42.728;23.296;2022-12-07T00:28:46;41.70;;;19.60;;
6850;SDS011;3464;42.728;23.296;2022-12-07T00:31:12;38.30;;;18.63;;
6850;SDS011;3464;42.728;23.296;2022-12-07T00:33:40;37.60;;;18.57;;
6850;SDS011;3464;42.728;23.296;2022-12-07T00:36:07;41.77;;;18.23;;
6850;SDS011;3464;42.728;23.296;2022-12-07T00:38:35;40.90;;;19.70;;
6850;SDS011;3464;42.728;23.296;2022-12-07T00:41:02;42.60;;;20.33;;
6850;SDS011;3464;42.728;23.296;2022-12-07T00:43:27;41.40;;;19.27;;
6850;SDS011;3464;42.728;23.296;2022-12-07T00:45:54;36.83;;;18.63;;
6850;SDS011;3464;42.728;23.296;2022-12-07T00:48:20;36.03;;;18.30;;
6850;SDS011;3464;42.728;23.296;2022-12-07T00:50:47;38.40;;;18.10;;
6850;SDS011;3464;42.728;23.296;2022-12-07T00:53:13;38.87;;;18.90;;
6850;SDS011;3464;42.728;23.296;2022-12-07T00:55:39;43.10;;;19.70;;
6850;SDS011;3464;42.728;23.296;2022-12-07T00:58:06;39.50;;;17.20;;
6850;SDS011;3464;42.728;23.296;2022-12-07T01:00:32;39.13;;;18.90;;
6850;SDS011;3464;42.728;23.296;2022-12-07T01:02:59;42.17;;;17.97;;
6850;SDS011;3464;42.728;23.296;2022-12-07T01:05:26;58.97;;;19.23;;
6850;SDS011;3464;42.728;23.296;2022-12-07T01:07:52;36.10;;;16.87;;
6850;SDS011;3464;42.728;23.296;2022-12-07T01:10:19;40.73;;;17.80;;
6850;SDS011;3464;42.728;23.296;2022-12-07T01:12:45;43.37;;;17.70;;
6850;SDS011;3464;42.728;23.296;2022-12-07T01:15:12;39.90;;;17.37;;
6850;SDS011;3464;42.728;23.296;2022-12-07T01:17:39;41.70;;;17.50;;
6850;SDS011;3464;42.728;23.296;2022-12-07T01:20:06;38.03;;;17.37;;
6850;SDS011;3464;42.728;23.296;2022-12-07T01:22:37;39.33;;;17.63;;
6850;SDS011;3464;42.728;23.296;2022-12-07T01:25:04;44.30;;;18.73;;
6850;SDS011;3464;42.728;23.296;2022-12-07T01:27:31;36.80;;;18.30;;
6850;SDS011;3464;42.728;23.296;2022-12-07T01:29:57;36.90;;;17.70;;
6850;SDS011;3464;42.728;23.296;2022-12-07T01:32:24;42.73;;;20.37;;
6850;SDS011;3464;42.728;23.296;2022-12-07T01:34:50;41.50;;;19.60;;
6850;SDS011;3464;42.728;23.296;2022-12-07T01:37:17;42.00;;;19.80;;
6850;SDS011;3464;42.728;23.296;2022-12-07T01:39:43;45.53;;;19.20;;
6850;SDS011;3464;42.728;23.296;2022-12-07T01:42:10;38.53;;;19.30;;
6850;SDS011;3464;42.728;23.296;2022-12-07T01:47:14;38.50;;;19.13;;
6850;SDS011;3464;42.728;23.296;2022-12-07T01:49:43;44.20;;;19.20;;
6850;SDS011;3464;42.728;23.296;2022-12-07T01:52:13;40.63;;;19.20;;
6850;SDS011;3464;42.728;23.296;2022-12-07T01:54:39;41.63;;;18.50;;
6850;SDS011;3464;42.728;23.296;2022-12-07T01:57:06;44.07;;;20.33;;
6850;SDS011;3464;42.728;23.296;2022-12-07T01:59:32;42.43;;;20.13;;
6850;SDS011;3464;42.728;23.296;2022-12-07T02:01:59;40.30;;;19.87;;
6850;SDS011;3464;42.728;23.296;2022-12-07T02:04:25;43.23;;;20.60;;
6850;SDS011;3464;42.728;23.296;2022-12-07T02:06:52;48.60;;;20.97;;
6850;SDS011;3464;42.728;23.296;2022-12-07T02:09:18;50.93;;;21.77;;
6850;SDS011;3464;42.728;23.296;2022-12-07T02:11:45;40.97;;;19.53;;
6850;SDS011;3464;42.728;23.296;2022-12-07T02:14:11;40.70;;;19.37;;
6850;SDS011;3464;42.728;23.296;2022-12-07T02:16:43;39.77;;;18.90;;
6850;SDS011;3464;42.728;23.296;2022-12-07T02:21:51;43.63;;;19.20;;
6850;SDS011;3464;42.728;23.296;2022-12-07T02:24:37;42.40;;;20.37;;
6850;SDS011;3464;42.728;23.296;2022-12-07T02:27:07;44.23;;;19.57;;
6850;SDS011;3464;42.728;23.296;2022-12-07T02:29:55;43.30;;;21.37;;
6850;SDS011;3464;42.728;23.296;2022-12-07T02:32:31;43.90;;;20.87;;
6850;SDS011;3464;42.728;23.296;2022-12-07T02:35:03;42.30;;;20.90;;
6850;SDS011;3464;42.728;23.296;2022-12-07T02:37:53;42.80;;;20.67;;
6850;SDS011;3464;42.728;23.296;2022-12-07T02:40:29;52.03;;;22.17;;
6850;SDS011;3464;42.728;23.296;2022-12-07T02:43:00;45.47;;;22.60;;
6850;SDS011;3464;42.728;23.296;2022-12-07T02:45:29;43.67;;;21.77;;
6850;SDS011;3464;42.728;23.296;2022-12-07T02:47:56;46.47;;;21.67;;
6850;SDS011;3464;42.728;23.296;2022-12-07T02:50:23;51.47;;;21.70;;
6850;SDS011;3464;42.728;23.296;2022-12-07T02:52:49;42.97;;;22.07;;
6850;SDS011;3464;42.728;23.296;2022-12-07T02:55:17;43.63;;;21.63;;
6850;SDS011;3464;42.728;23.296;2022-12-07T02:57:52;42.30;;;21.17;;
6850;SDS011;3464;42.728;23.296;2022-12-07T03:00:20;42.47;;;21.37;;
6850;SDS011;3464;42.728;23.296;2022-12-07T03:02:50;46.20;;;21.87;;
6850;SDS011;3464;42.728;23.296;2022-12-07T03:05:26;44.13;;;21.93;;
6850;SDS011;3464;42.728;23.296;2022-12-07T03:08:00;49.10;;;21.43;;
6850;SDS011;3464;42.728;23.296;2022-12-07T03:10:32;50.73;;;24.03;;
6850;SDS011;3464;42.728;23.296;2022-12-07T03:16:39;48.43;;;23.03;;
6850;SDS011;3464;42.728;23.296;2022-12-07T03:18:51;46.90;;;22.43;;
6850;SDS011;3464;42.728;23.296;2022-12-07T03:21:21;46.40;;;21.70;;
6850;SDS011;3464;42.728;23.296;2022-12-07T03:23:49;45.83;;;23.43;;
6850;SDS011;3464;42.728;23.296;2022-12-07T03:26:14;42.03;;;21.03;;
6850;SDS011;3464;42.728;23.296;2022-12-07T03:28:42;51.67;;;22.63;;
6850;SDS011;3464;42.728;23.296;2022-12-07T03:31:11;50.30;;;22.40;;
6850;SDS011;3464;42.728;23.296;2022-12-07T03:33:40;53.50;;;21.47;;
6850;SDS011;3464;42.728;23.296;2022-12-07T03:36:40;47.87;;;22.53;;
6850;SDS011;3464;42.728;23.296;2022-12-07T03:38:54;45.97;;;21.90;;
6850;SDS011;3464;42.728;23.296;2022-12-07T03:41:26;47.40;;;22.63;;
6850;SDS011;3464;42.728;23.296;2022-12-07T03:43:51;44.50;;;20.60;;
6850;SDS011;3464;42.728;23.296;2022-12-07T03:46:20;46.83;;;20.90;;
6850;SDS011;3464;42.728;23.296;2022-12-07T03:48:52;53.13;;;22.70;;
6850;SDS011;3464;42.728;23.296;2022-12-07T03:51:20;53.33;;;23.33;;
6850;SDS011;3464;42.728;23.296;2022-12-07T03:53:49;45.77;;;22.20;;
6850;SDS011;3464;42.728;23.296;2022-12-07T03:56:16;46.27;;;20.83;;
6850;SDS011;3464;42.728;23.296;2022-12-07T03:58:41;65.17;;;23.47;;
6850;SDS011;3464;42.728;23.296;2022-12-07T04:01:08;45.93;;;22.03;;
6850;SDS011;3464;42.728;23.296;2022-12-07T04:03:35;51.93;;;24.50;;
6850;SDS011;3464;42.728;23.296;2022-12-07T04:06:01;50.43;;;23.70;;
6850;SDS011;3464;42.728;23.296;2022-12-07T04:08:28;44.30;;;21.27;;
6850;SDS011;3464;42.728;23.296;2022-12-07T04:10:54;41.50;;;18.63;;
6850;SDS011;3464;42.728;23.296;2022-12-07T04:13:21;42.83;;;20.90;;
6850;SDS011;3464;42.728;23.296;2022-12-07T04:15:47;55.83;;;22.37;;
6850;SDS011;3464;42.728;23.296;2022-12-07T04:18:14;49.63;;;23.50;;
6850;SDS011;3464;42.728;23.296;2022-12-07T04:20:40;60.93;;;27.30;;
6850;SDS011;3464;42.728;23.296;2022-12-07T04:23:07;63.93;;;28.20;;
6850;SDS011;3464;42.728;23.296;2022-12-07T04:25:34;61.50;;;27.73;;
6850;SDS011;3464;42.728;23.296;2022-12-07T04:28:00;58.33;;;28.77;;
6850;SDS011;3464;42.728;23.296;2022-12-07T04:30:27;59.70;;;28.83;;
6850;SDS011;3464;42.728;23.296;2022-12-07T04:32:53;56.43;;;27.93;;
6850;SDS011;3464;42.728;23.296;2022-12-07T04:35:20;52.90;;;26.53;;
6850;SDS011;3464;42.728;23.296;2022-12-07T04:37:46;48.60;;;24.00;;
6850;SDS011;3464;42.728;23.296;2022-12-07T04:40:13;55.47;;;24.53;;
6850;SDS011;3464;42.728;23.296;2022-12-07T04:42:39;44.83;;;22.80;;
6850;SDS011;3464;42.728;23.296;2022-12-07T04:45:06;43.07;;;22.53;;
6850;SDS011;3464;42.728;23.296;2022-12-07T04:47:33;50.57;;;22.43;;
6850;SDS011;3464;42.728;23.296;2022-12-07T04:50:00;46.90;;;22.17;;
6850;SDS011;3464;42.728;23.296;2022-12-07T04:52:26;44.53;;;22.00;;
6850;SDS011;3464;42.728;23.296;2022-12-07T04:54:53;44.83;;;22.47;;
6850;SDS011;3464;42.728;23.296;2022-12-07T04:57:19;48.07;;;23.07;;
6850;SDS011;3464;42.728;23.296;2022-12-07T04:59:46;52.70;;;24.57;;
6850;SDS011;3464;42.728;23.296;2022-12-07T05:02:12;50.47;;;24.97;;
6850;SDS011;3464;42.728;23.296;2022-12-07T05:04:39;48.23;;;25.67;;
6850;SDS011;3464;42.728;23.296;2022-12-07T05:07:05;50.93;;;25.80;;
6850;SDS011;3464;42.728;23.296;2022-12-07T05:09:32;54.87;;;27.87;;
6850;SDS011;3464;42.728;23.296;2022-12-07T05:11:58;58.47;;;29.20;;
6850;SDS011;3464;42.728;23.296;2022-12-07T05:14:25;63.50;;;30.10;;
6850;SDS011;3464;42.728;23.296;2022-12-07T05:16:51;56.20;;;27.60;;
6850;SDS011;3464;42.728;23.296;2022-12-07T05:19:18;55.33;;;28.53;;
6850;SDS011;3464;42.728;23.296;2022-12-07T05:21:45;56.63;;;27.67;;
6850;SDS011;3464;42.728;23.296;2022-12-07T05:24:12;61.73;;;30.10;;
6850;SDS011;3464;42.728;23.296;2022-12-07T05:26:38;59.50;;;29.80;;
6850;SDS011;3464;42.728;23.296;2022-12-07T05:29:04;67.90;;;31.67;;
6850;SDS011;3464;42.728;23.296;2022-12-07T05:31:31;68.07;;;31.73;;
6850;SDS011;3464;42.728;23.296;2022-12-07T05:33:58;68.63;;;31.60;;
6850;SDS011;3464;42.728;23.296;2022-12-07T05:36:25;66.77;;;31.23;;
6850;SDS011;3464;42.728;23.296;2022-12-07T05:38:51;62.27;;;29.87;;
6850;SDS011;3464;42.728;23.296;2022-12-07T05:41:18;62.23;;;31.67;;
6850;SDS011;3464;42.728;23.296;2022-12-07T05:43:50;62.53;;;33.23;;
6850;SDS011;3464;42.728;23.296;2022-12-07T05:46:16;71.23;;;32.90;;
6850;SDS011;3464;42.728;23.296;2022-12-07T05:48:43;66.87;;;34.67;;
6850;SDS011;3464;42.728;23.296;2022-12-07T05:51:09;60.50;;;30.57;;
6850;SDS011;3464;42.728;23.296;2022-12-07T05:53:36;58.30;;;30.50;;
6850;SDS011;3464;42.728;23.296;2022-12-07T05:56:03;56.53;;;28.57;;
6850;SDS011;3464;42.728;23.296;2022-12-07T05:58:29;65.40;;;30.93;;
6850;SDS011;3464;42.728;23.296;2022-12-07T06:01:01;66.30;;;32.03;;
6850;SDS011;3464;42.728;23.296;2022-12-07T06:03:28;63.30;;;30.97;;
6850;SDS011;3464;42.728;23.296;2022-12-07T06:05:54;58.10;;;30.00;;
6850;SDS011;3464;42.728;23.296;2022-12-07T06:08:21;86.03;;;35.77;;
6850;SDS011;3464;42.728;23.296;2022-12-07T06:10:48;64.83;;;31.90;;
6850;SDS011;3464;42.728;23.296;2022-12-07T06:13:14;71.23;;;31.47;;
6850;SDS011;3464;42.728;23.296;2022-12-07T06:15:41;58.83;;;27.87;;
6850;SDS011;3464;42.728;23.296;2022-12-07T06:18:07;61.13;;;27.77;;
6850;SDS011;3464;42.728;23.296;2022-12-07T06:20:34;64.17;;;28.50;;
6850;SDS011;3464;42.728;23.296;2022-12-07T06:23:01;58.67;;;27.90;;
6850;SDS011;3464;42.728;23.296;2022-12-07T06:25:28;66.70;;;29.23;;
6850;SDS011;3464;42.728;23.296;2022-12-07T06:27:54;67.77;;;28.63;;
6850;SDS011;3464;42.728;23.296;2022-12-07T06:30:21;53.77;;;26.47;;
6850;SDS011;3464;42.728;23.296;2022-12-07T06:32:47;62.80;;;26.20;;
6850;SDS011;3464;42.728;23.296;2022-12-07T06:35:15;63.73;;;29.23;;
6850;SDS011;3464;42.728;23.296;2022-12-07T06:37:41;64.03;;;30.53;;
6850;SDS011;3464;42.728;23.296;2022-12-07T06:40:08;63.67;;;29.43;;
6850;SDS011;3464;42.728;23.296;2022-12-07T06:42:35;60.30;;;27.93;;
6850;SDS011;3464;42.728;23.296;2022-12-07T06:45:01;63.30;;;28.73;;
6850;SDS011;3464;42.728;23.296;2022-12-07T06:47:28;57.00;;;27.87;;
6850;SDS011;3464;42.728;23.296;2022-12-07T06:49:55;58.77;;;27.17;;
6850;SDS011;3464;42.728;23.296;2022-12-07T06:52:21;61.60;;;25.90;;
6850;SDS011;3464;42.728;23.296;2022-12-07T06:54:48;60.03;;;24.93;;
6850;SDS011;3464;42.728;23.296;2022-12-07T06:57:14;64.67;;;26.57;;
6850;SDS011;3464;42.728;23.296;2022-12-07T06:59:41;54.87;;;25.93;;
6850;SDS011;3464;42.728;23.296;2022-12-07T07:02:08;53.77;;;25.73;;
6850;SDS011;3464;42.728;23.296;2022-12-07T07:04:35;56.63;;;28.10;;
6850;SDS011;3464;42.728;23.296;2022-12-07T07:07:01;62.37;;;29.60;;
6850;SDS011;3464;42.728;23.296;2022-12-07T07:09:28;62.37;;;29.70;;
6850;SDS011;3464;42.728;23.296;2022-12-07T07:11:54;74.07;;;31.43;;
6850;SDS011;3464;42.728;23.296;2022-12-07T07:14:21;65.43;;;31.43;;
6850;SDS011;3464;42.728;23.296;2022-12-07T07:16:47;69.23;;;32.40;;
6850;SDS011;3464;42.728;23.296;2022-12-07T07:19:14;63.13;;;34.23;;
6850;SDS011;3464;42.728;23.296;2022-12-07T07:21:40;64.60;;;33.00;;
6850;SDS011;3464;42.728;23.296;2022-12-07T07:24:07;66.43;;;33.70;;
6850;SDS011;3464;42.728;23.296;2022-12-07T07:26:33;68.70;;;31.90;;
6850;SDS011;3464;42.728;23.296;2022-12-07T07:29:00;63.67;;;31.53;;
6850;SDS011;3464;42.728;23.296;2022-12-07T07:31:27;62.40;;;29.80;;
6850;SDS011;3464;42.728;23.296;2022-12-07T07:33:53;63.50;;;30.27;;
6850;SDS011;3464;42.728;23.296;2022-12-07T07:36:22;60.80;;;27.50;;
6850;SDS011;3464;42.728;23.296;2022-12-07T07:38:49;57.57;;;28.93;;
6850;SDS011;3464;42.728;23.296;2022-12-07T07:41:15;57.83;;;28.50;;
6850;SDS011;3464;42.728;23.296;2022-12-07T07:43:42;54.83;;;27.00;;
6850;SDS011;3464;42.728;23.296;2022-12-07T07:46:08;52.63;;;26.00;;
6850;SDS011;3464;42.728;23.296;2022-12-07T07:48:35;55.83;;;27.23;;
6850;SDS011;3464;42.728;23.296;2022-12-07T07:51:04;46.50;;;24.40;;
6850;SDS011;3464;42.728;23.296;2022-12-07T07:53:28;51.13;;;24.50;;
6850;SDS011;3464;42.728;23.296;2022-12-07T07:55:54;51.80;;;25.83;;
6850;SDS011;3464;42.728;23.296;2022-12-07T07:58:21;52.30;;;26.20;;
6850;SDS011;3464;42.728;23.296;2022-12-07T08:00:47;54.07;;;25.43;;
6850;SDS011;3464;42.728;23.296;2022-12-07T08:03:14;46.70;;;24.50;;
6850;SDS011;3464;42.728;23.296;2022-12-07T08:05:40;54.63;;;25.80;;
6850;SDS011;3464;42.728;23.296;2022-12-07T08:08:08;58.80;;;25.33;;
6850;SDS011;3464;42.728;23.296;2022-12-07T08:10:34;51.33;;;25.03;;
6850;SDS011;3464;42.728;23.296;2022-12-07T08:13:01;54.90;;;27.80;;
6850;SDS011;3464;42.728;23.296;2022-12-07T08:15:33;58.67;;;29.00;;
6850;SDS011;3464;42.728;23.296;2022-12-07T08:18:00;58.23;;;27.90;;
6850;SDS011;3464;42.728;23.296;2022-12-07T08:20:29;59.90;;;30.37;;
6850;SDS011;3464;42.728;23.296;2022-12-07T08:22:53;56.00;;;28.57;;
6850;SDS011;3464;42.728;23.296;2022-12-07T08:25:20;56.40;;;29.13;;
6850;SDS011;3464;42.728;23.296;2022-12-07T08:27:46;62.40;;;29.07;;
6850;SDS011;3464;42.728;23.296;2022-12-07T08:30:13;55.90;;;28.53;;
6850;SDS011;3464;42.728;23.296;2022-12-07T08:32:40;61.07;;;29.33;;
6850;SDS011;3464;42.728;23.296;2022-12-07T08:35:06;62.40;;;28.17;;
6850;SDS011;3464;42.728;23.296;2022-12-07T08:37:34;64.27;;;28.90;;
6850;SDS011;3464;42.728;23.296;2022-12-07T08:40:00;67.33;;;29.70;;
6850;SDS011;3464;42.728;23.296;2022-12-07T08:42:27;61.70;;;30.03;;
6850;SDS011;3464;42.728;23.296;2022-12-07T08:44:54;58.00;;;28.90;;
6850;SDS011;3464;42.728;23.296;2022-12-07T08:47:20;65.20;;;29.90;;
6850;SDS011;3464;42.728;23.296;2022-12-07T08:49:47;61.33;;;29.50;;
6850;SDS011;3464;42.728;23.296;2022-12-07T08:52:13;68.87;;;33.23;;
6850;SDS011;3464;42.728;23.296;2022-12-07T08:54:40;66.10;;;30.23;;
6850;SDS011;3464;42.728;23.296;2022-12-07T08:57:06;68.03;;;29.93;;
6850;SDS011;3464;42.728;23.296;2022-12-07T08:59:33;66.73;;;31.10;;
6850;SDS011;3464;42.728;23.296;2022-12-07T09:01:59;62.77;;;30.43;;
6850;SDS011;3464;42.728;23.296;2022-12-07T09:04:26;65.20;;;30.20;;
6850;SDS011;3464;42.728;23.296;2022-12-07T09:06:53;66.50;;;30.50;;
6850;SDS011;3464;42.728;23.296;2022-12-07T09:09:19;60.20;;;32.23;;
6850;SDS011;3464;42.728;23.296;2022-12-07T09:11:46;59.73;;;29.07;;
6850;SDS011;3464;42.728;23.296;2022-12-07T09:14:12;66.87;;;29.80;;
6850;SDS011;3464;42.728;23.296;2022-12-07T09:16:39;62.03;;;29.90;;
6850;SDS011;3464;42.728;23.296;2022-12-07T09:19:05;60.57;;;28.90;;
6850;SDS011;3464;42.728;23.296;2022-12-07T09:21:32;61.00;;;29.83;;
6850;SDS011;3464;42.728;23.296;2022-12-07T09:23:58;61.10;;;28.90;;
6850;SDS011;3464;42.728;23.296;2022-12-07T09:26:25;63.70;;;27.83;;
6850;SDS011;3464;42.728;23.296;2022-12-07T09:28:51;66.73;;;29.17;;
6850;SDS011;3464;42.728;23.296;2022-12-07T09:31:18;63.43;;;28.47;;
6850;SDS011;3464;42.728;23.296;2022-12-07T09:33:45;64.33;;;29.60;;
6850;SDS011;3464;42.728;23.296;2022-12-07T09:36:11;65.50;;;28.57;;
6850;SDS011;3464;42.728;23.296;2022-12-07T09:38:38;64.63;;;31.00;;
6850;SDS011;3464;42.728;23.296;2022-12-07T09:41:06;70.00;;;30.93;;
6850;SDS011;3464;42.728;23.296;2022-12-07T09:43:33;61.40;;;31.17;;
6850;SDS011;3464;42.728;23.296;2022-12-07T09:45:58;58.87;;;30.67;;
6850;SDS011;3464;42.728;23.296;2022-12-07T09:48:29;59.03;;;28.70;;
6850;SDS011;3464;42.728;23.296;2022-12-07T09:50:57;65.63;;;31.43;;
6850;SDS011;3464;42.728;23.296;2022-12-07T09:53:28;62.13;;;30.30;;
6850;SDS011;3464;42.728;23.296;2022-12-07T09:55:53;63.80;;;30.83;;
6850;SDS011;3464;42.728;23.296;2022-12-07T09:58:23;58.37;;;30.97;;
6850;SDS011;3464;42.728;23.296;2022-12-07T10:00:49;59.53;;;31.53;;
6850;SDS011;3464;42.728;23.296;2022-12-07T10:03:14;70.07;;;32.23;;
6850;SDS011;3464;42.728;23.296;2022-12-07T10:05:44;65.80;;;32.00;;
6850;SDS011;3464;42.728;23.296;2022-12-07T10:08:10;63.27;;;30.00;;
6850;SDS011;3464;42.728;23.296;2022-12-07T10:10:38;60.80;;;29.97;;
6850;SDS011;3464;42.728;23.296;2022-12-07T10:13:07;62.63;;;31.60;;
6850;SDS011;3464;42.728;23.296;2022-12-07T10:20:44;66.60;;;32.97;;
6850;SDS011;3464;42.728;23.296;2022-12-07T10:23:14;69.87;;;33.50;;
6850;SDS011;3464;42.728;23.296;2022-12-07T10:25:39;65.27;;;32.23;;
6850;SDS011;3464;42.728;23.296;2022-12-07T10:28:15;60.00;;;32.10;;
6850;SDS011;3464;42.728;23.296;2022-12-07T10:33:54;57.00;;;28.20;;
6850;SDS011;3464;42.728;23.296;2022-12-07T10:39:02;59.20;;;28.47;;
6850;SDS011;3464;42.728;23.296;2022-12-07T10:41:29;65.80;;;29.50;;
6850;SDS011;3464;42.728;23.296;2022-12-07T10:43:56;61.80;;;30.03;;
6850;SDS011;3464;42.728;23.296;2022-12-07T10:49:27;56.83;;;28.87;;
6850;SDS011;3464;42.728;23.296;2022-12-07T10:51:57;54.87;;;27.33;;
6850;SDS011;3464;42.728;23.296;2022-12-07T10:54:32;53.10;;;25.80;;
6850;SDS011;3464;42.728;23.296;2022-12-07T10:57:02;60.40;;;26.63;;
6850;SDS011;3464;42.728;23.296;2022-12-07T11:02:24;55.40;;;26.37;;
6850;SDS011;3464;42.728;23.296;2022-12-07T11:08:02;52.90;;;25.20;;
6850;SDS011;3464;42.728;23.296;2022-12-07T11:10:22;49.20;;;24.90;;
6850;SDS011;3464;42.728;23.296;2022-12-07T11:12:54;54.03;;;23.87;;
6850;SDS011;3464;42.728;23.296;2022-12-07T11:15:38;52.00;;;24.90;;
6850;SDS011;3464;42.728;23.296;2022-12-07T11:18:14;53.03;;;25.50;;
6850;SDS011;3464;42.728;23.296;2022-12-07T11:21:03;46.23;;;22.80;;
6850;SDS011;3464;42.728;23.296;2022-12-07T11:23:20;50.57;;;23.80;;
6850;SDS011;3464;42.728;23.296;2022-12-07T11:25:49;49.67;;;22.77;;
6850;SDS011;3464;42.728;23.296;2022-12-07T11:28:22;44.07;;;22.00;;
6850;SDS011;3464;42.728;23.296;2022-12-07T11:31:02;46.20;;;21.83;;
6850;SDS011;3464;42.728;23.296;2022-12-07T11:33:40;43.87;;;21.30;;
6850;SDS011;3464;42.728;23.296;2022-12-07T11:36:08;39.27;;;18.33;;
6850;SDS011;3464;42.728;23.296;2022-12-07T11:38:49;46.70;;;19.30;;
6850;SDS011;3464;42.728;23.296;2022-12-07T11:41:14;38.77;;;20.07;;
6850;SDS011;3464;42.728;23.296;2022-12-07T11:43:49;45.37;;;19.40;;
6850;SDS011;3464;42.728;23.296;2022-12-07T11:46:15;32.87;;;16.50;;
6850;SDS011;3464;42.728;23.296;2022-12-07T11:48:44;40.03;;;17.77;;
6850;SDS011;3464;42.728;23.296;2022-12-07T11:51:11;38.20;;;17.00;;
6850;SDS011;3464;42.728;23.296;2022-12-07T11:53:41;37.00;;;16.90;;
6850;SDS011;3464;42.728;23.296;2022-12-07T11:56:10;41.37;;;18.10;;
6850;SDS011;3464;42.728;23.296;2022-12-07T11:59:13;33.93;;;17.00;;
6850;SDS011;3464;42.728;23.296;2022-12-07T12:01:41;38.07;;;16.77;;
6850;SDS011;3464;42.728;23.296;2022-12-07T12:04:17;36.80;;;18.50;;
6850;SDS011;3464;42.728;23.296;2022-12-07T12:06:40;42.50;;;16.37;;
6850;SDS011;3464;42.728;23.296;2022-12-07T12:09:12;43.40;;;20.43;;
6850;SDS011;3464;42.728;23.296;2022-12-07T12:13:05;36.63;;;16.80;;
6850;SDS011;3464;42.728;23.296;2022-12-07T12:17:32;38.90;;;19.03;;
6850;SDS011;3464;42.728;23.296;2022-12-07T12:20:32;39.00;;;17.83;;
6850;SDS011;3464;42.728;23.296;2022-12-07T12:22:51;40.40;;;18.60;;
6850;SDS011;3464;42.728;23.296;2022-12-07T12:25:20;41.10;;;17.93;;
6850;SDS011;3464;42.728;23.296;2022-12-07T12:27:45;36.63;;;17.10;;
6850;SDS011;3464;42.728;23.296;2022-12-07T12:32:49;39.23;;;17.60;;
6850;SDS011;3464;42.728;23.296;2022-12-07T12:35:27;41.00;;;17.60;;
6850;SDS011;3464;42.728;23.296;2022-12-07T12:37:54;35.90;;;17.20;;
6850;SDS011;3464;42.728;23.296;2022-12-07T12:43:14;37.20;;;17.07;;
6850;SDS011;3464;42.728;23.296;2022-12-07T12:45:31;32.33;;;16.10;;
6850;SDS011;3464;42.728;23.296;2022-12-07T12:48:00;34.10;;;17.27;;
6850;SDS011;3464;42.728;23.296;2022-12-07T12:50:29;31.40;;;16.40;;
6850;SDS011;3464;42.728;23.296;2022-12-07T12:52:58;37.93;;;17.77;;
6850;SDS011;3464;42.728;23.296;2022-12-07T12:55:28;34.77;;;18.47;;
6850;SDS011;3464;42.728;23.296;2022-12-07T13:03:52;34.23;;;18.27;;
6850;SDS011;3464;42.728;23.296;2022-12-07T13:09:15;28.23;;;14.23;;
6850;SDS011;3464;42.728;23.296;2022-12-07T13:11:32;30.50;;;13.83;;
6850;SDS011;3464;42.728;23.296;2022-12-07T13:16:39;30.80;;;15.07;;
6850;SDS011;3464;42.728;23.296;2022-12-07T13:19:26;32.20;;;15.60;;
6850;SDS011;3464;42.728;23.296;2022-12-07T13:24:12;33.67;;;15.40;;
6850;SDS011;3464;42.728;23.296;2022-12-07T13:29:09;35.40;;;16.53;;
6850;SDS011;3464;42.728;23.296;2022-12-07T13:34:41;34.20;;;15.40;;
6850;SDS011;3464;42.728;23.296;2022-12-07T13:37:14;32.90;;;16.40;;
6850;SDS011;3464;42.728;23.296;2022-12-07T13:39:48;30.67;;;14.90;;
6850;SDS011;3464;42.728;23.296;2022-12-07T13:42:26;38.30;;;16.30;;
6850;SDS011;3464;42.728;23.296;2022-12-07T13:44:55;30.83;;;15.93;;
6850;SDS011;3464;42.728;23.296;2022-12-07T13:47:43;38.57;;;17.07;;
6850;SDS011;3464;42.728;23.296;2022-12-07T13:52:46;30.27;;;15.43;;
6850;SDS011;3464;42.728;23.296;2022-12-07T13:55:14;34.03;;;16.60;;
6850;SDS011;3464;42.728;23.296;2022-12-07T13:57:40;33.23;;;15.00;;
6850;SDS011;3464;42.728;23.296;2022-12-07T14:00:15;32.30;;;13.93;;
6850;SDS011;3464;42.728;23.296;2022-12-07T14:05:25;34.13;;;14.77;;
6850;SDS011;3464;42.728;23.296;2022-12-07T14:07:54;32.00;;;16.07;;
6850;SDS011;3464;42.728;23.296;2022-12-07T14:10:23;30.30;;;15.30;;
6850;SDS011;3464;42.728;23.296;2022-12-07T14:12:51;36.90;;;15.43;;
6850;SDS011;3464;42.728;23.296;2022-12-07T14:15:22;36.07;;;16.60;;
6850;SDS011;3464;42.728;23.296;2022-12-07T14:17:50;36.60;;;16.73;;
6850;SDS011;3464;42.728;23.296;2022-12-07T14:22:55;31.77;;;15.67;;
6850;SDS011;3464;42.728;23.296;2022-12-07T14:25:22;33.90;;;15.73;;
6850;SDS011;3464;42.728;23.296;2022-12-07T14:27:51;38.10;;;17.67;;
6850;SDS011;3464;42.728;23.296;2022-12-07T14:30:17;33.63;;;15.80;;
6850;SDS011;3464;42.728;23.296;2022-12-07T14:32:44;32.90;;;15.30;;
6850;SDS011;3464;42.728;23.296;2022-12-07T14:35:11;37.50;;;15.63;;
6850;SDS011;3464;42.728;23.296;2022-12-07T14:37:37;36.30;;;17.83;;
6850;SDS011;3464;42.728;23.296;2022-12-07T14:40:04;43.37;;;18.87;;
6850;SDS011;3464;42.728;23.296;2022-12-07T14:42:32;38.07;;;17.90;;
6850;SDS011;3464;42.728;23.296;2022-12-07T14:44:58;35.27;;;17.60;;
6850;SDS011;3464;42.728;23.296;2022-12-07T14:47:25;39.47;;;18.90;;
6850;SDS011;3464;42.728;23.296;2022-12-07T14:49:51;43.33;;;18.00;;
6850;SDS011;3464;42.728;23.296;2022-12-07T14:52:19;43.03;;;19.30;;
6850;SDS011;3464;42.728;23.296;2022-12-07T14:54:46;42.40;;;19.63;;
6850;SDS011;3464;42.728;23.296;2022-12-07T14:57:14;40.97;;;19.37;;
6850;SDS011;3464;42.728;23.296;2022-12-07T14:59:42;44.53;;;20.23;;
6850;SDS011;3464;42.728;23.296;2022-12-07T15:02:09;29.30;;;13.17;;
6850;SDS011;3464;42.728;23.296;2022-12-07T15:04:35;23.90;;;11.30;;
6850;SDS011;3464;42.728;23.296;2022-12-07T15:07:02;30.20;;;13.00;;
6850;SDS011;3464;42.728;23.296;2022-12-07T15:09:28;31.17;;;14.67;;
6850;SDS011;3464;42.728;23.296;2022-12-07T15:11:54;37.87;;;17.77;;
6850;SDS011;3464;42.728;23.296;2022-12-07T15:14:21;37.03;;;17.77;;
6850;SDS011;3464;42.728;23.296;2022-12-07T15:16:47;39.93;;;19.40;;
6850;SDS011;3464;42.728;23.296;2022-12-07T15:19:15;45.50;;;20.30;;
6850;SDS011;3464;42.728;23.296;2022-12-07T15:21:41;45.77;;;21.90;;
6850;SDS011;3464;42.728;23.296;2022-12-07T15:24:07;45.17;;;21.00;;
6850;SDS011;3464;42.728;23.296;2022-12-07T15:26:33;53.70;;;22.07;;
6850;SDS011;3464;42.728;23.296;2022-12-07T15:29:00;41.80;;;19.10;;
6850;SDS011;3464;42.728;23.296;2022-12-07T15:31:27;48.63;;;20.27;;
6850;SDS011;3464;42.728;23.296;2022-12-07T15:33:54;54.53;;;24.93;;
6850;SDS011;3464;42.728;23.296;2022-12-07T15:36:22;57.13;;;26.37;;
6850;SDS011;3464;42.728;23.296;2022-12-07T15:38:49;56.40;;;29.40;;
6850;SDS011;3464;42.728;23.296;2022-12-07T15:41:16;70.27;;;35.93;;
6850;SDS011;3464;42.728;23.296;2022-12-07T15:43:42;62.97;;;30.70;;